Time;durP1;ratioP1;P1;durP2;ratioP2;P2;SDS_P1;SDS_P2;PMS_P1;PMS_P2;Temp;Humidity;BMP_temperature;BMP_pressure;BME280_temperature;BME280_humidity;BME280_pressure;Samples;Min_cycle;Max_cycle;Signal;HPM_P1;HPM_P2
2023/09/30 00:00:47;;;;;;;25.38;13.45;;;19.90;99.90;;;;;;5092482;28;20043;-67
2023/09/30 00:03:12;;;;;;;26.98;13.40;;;19.70;99.90;;;;;;5092579;28;20020;-66
2023/09/30 00:05:38;;;;;;;27.08;13.25;;;19.70;99.90;;;;;;5092199;28;20464;-66
2023/09/30 00:08:07;;;;;;;25.90;13.27;;;19.60;99.90;;;;;;5092190;28;20067;-66
2023/09/30 00:10:32;;;;;;;29.80;13.38;;;19.60;99.90;;;;;;5092362;28;20032;-66
2023/09/30 00:12:58;;;;;;;27.15;13.18;;;19.50;99.90;;;;;;5092406;28;20089;-66
2023/09/30 00:15:25;;;;;;;25.55;12.85;;;19.40;99.90;;;;;;5092607;28;20031;-66
2023/09/30 00:17:50;;;;;;;25.08;12.20;;;19.40;99.90;;;;;;5091091;28;20174;-66
2023/09/30 00:20:17;;;;;;;25.63;13.13;;;19.20;99.90;;;;;;5090517;28;20107;-66
2023/09/30 00:22:43;;;;;;;26.55;12.85;;;19.20;99.90;;;;;;5092168;28;20020;-66
2023/09/30 00:25:09;;;;;;;25.15;12.55;;;19.10;99.90;;;;;;5092033;28;20406;-66
2023/09/30 00:27:35;;;;;;;26.35;13.35;;;19.10;99.90;;;;;;5091975;28;20027;-66
2023/09/30 00:30:01;;;;;;;23.92;12.23;;;19.10;99.90;;;;;;5091791;28;20043;-66
2023/09/30 00:32:28;;;;;;;24.33;11.85;;;19.10;99.90;;;;;;5091822;28;20020;-66
2023/09/30 00:34:54;;;;;;;25.27;12.60;;;19.10;99.90;;;;;;5091487;28;20032;-66
2023/09/30 00:37:20;;;;;;;27.25;13.27;;;19.00;99.90;;;;;;5091864;28;20028;-66
2023/09/30 00:39:46;;;;;;;24.92;11.60;;;19.00;99.90;;;;;;5091776;28;20413;-66
2023/09/30 00:42:12;;;;;;;24.60;12.20;;;19.00;99.90;;;;;;5092100;28;20025;-65
2023/09/30 00:44:37;;;;;;;22.63;12.00;;;19.10;99.90;;;;;;5091743;28;20028;-66
2023/09/30 00:47:04;;;;;;;26.58;12.65;;;19.10;99.90;;;;;;5091442;28;20038;-66
2023/09/30 00:49:30;;;;;;;25.15;12.23;;;19.30;99.90;;;;;;5091179;28;20402;-66
2023/09/30 00:51:57;;;;;;;23.38;12.23;;;19.40;99.90;;;;;;5091863;28;20028;-66
2023/09/30 00:54:25;;;;;;;24.58;12.27;;;19.60;99.90;;;;;;5091677;28;20098;-66
2023/09/30 00:56:52;;;;;;;25.88;12.25;;;19.70;99.90;;;;;;5091440;28;20032;-66
2023/09/30 00:59:19;;;;;;;24.35;12.55;;;19.90;99.90;;;;;;5091393;28;20498;-66
2023/09/30 01:01:46;;;;;;;23.25;12.75;;;19.90;99.90;;;;;;5091379;28;20012;-66
2023/09/30 01:04:12;;;;;;;23.83;12.05;;;19.90;99.90;;;;;;5091073;28;20486;-66
2023/09/30 01:06:38;;;;;;;22.45;11.95;;;19.90;99.90;;;;;;5091690;28;20028;-66
2023/09/30 01:09:05;;;;;;;22.50;11.90;;;20.00;99.90;;;;;;5091107;28;20052;-66
2023/09/30 01:11:31;;;;;;;22.98;12.35;;;20.00;99.90;;;;;;5091403;28;20031;-66
2023/09/30 01:13:57;;;;;;;23.55;12.60;;;20.00;99.90;;;;;;5091239;28;20454;-66
2023/09/30 01:16:23;;;;;;;22.95;12.27;;;20.10;99.90;;;;;;5091454;28;20052;-66
2023/09/30 01:18:49;;;;;;;20.83;12.00;;;20.10;99.90;;;;;;5091241;28;20106;-66
2023/09/30 01:21:15;;;;;;;21.88;11.85;;;20.00;99.90;;;;;;5091130;28;20103;-66
2023/09/30 01:23:43;;;;;;;22.92;12.38;;;20.00;99.90;;;;;;5091260;28;20039;-66
2023/09/30 01:26:15;;;;;;;22.63;11.93;;;19.90;99.90;;;;;;5091153;28;20082;-66
2023/09/30 01:28:41;;;;;;;24.20;12.65;;;19.80;99.90;;;;;;5090426;28;20413;-66
2023/09/30 01:31:06;;;;;;;23.80;12.32;;;19.60;99.90;;;;;;5095245;28;20032;-66
2023/09/30 01:33:32;;;;;;;21.17;12.00;;;19.50;99.90;;;;;;5095055;28;20028;-66
2023/09/30 01:35:59;;;;;;;22.63;12.20;;;19.30;99.90;;;;;;5095714;28;20512;-66
2023/09/30 01:38:26;;;;;;;23.35;12.60;;;19.20;99.90;;;;;;5095264;28;20020;-66
2023/09/30 01:40:52;;;;;;;23.00;12.13;;;19.10;99.90;;;;;;5095192;28;20035;-66
2023/09/30 01:43:17;;;;;;;22.40;11.52;;;19.00;99.90;;;;;;5095136;28;20473;-66
2023/09/30 01:45:44;;;;;;;22.85;11.88;;;18.90;99.90;;;;;;5095339;28;20421;-66
2023/09/30 01:48:10;;;;;;;21.55;11.90;;;18.90;99.90;;;;;;5094559;28;20028;-66
2023/09/30 01:50:40;;;;;;;22.92;11.63;;;18.70;99.90;;;;;;5094901;28;20410;-66
2023/09/30 01:53:06;;;;;;;23.40;12.23;;;18.70;99.90;;;;;;5095439;28;20024;-66
2023/09/30 01:55:33;;;;;;;23.00;12.52;;;18.60;99.90;;;;;;5094538;28;20056;-66
2023/09/30 01:57:59;;;;;;;24.08;12.38;;;18.50;99.90;;;;;;5094766;28;20070;-66
2023/09/30 02:00:25;;;;;;;22.58;12.57;;;18.40;99.90;;;;;;5095130;28;20024;-66
2023/09/30 02:02:50;;;;;;;24.13;12.35;;;18.40;99.90;;;;;;5094365;28;20106;-66
2023/09/30 02:05:16;;;;;;;23.05;11.38;;;18.40;99.90;;;;;;5094746;28;20020;-66
2023/09/30 02:07:42;;;;;;;20.70;11.10;;;18.40;99.90;;;;;;5094890;28;20048;-66
2023/09/30 02:10:08;;;;;;;23.33;11.88;;;18.40;99.90;;;;;;5094453;28;20040;-66
2023/09/30 02:12:34;;;;;;;23.92;12.25;;;18.40;99.90;;;;;;5094507;28;20091;-65
2023/09/30 02:14:59;;;;;;;20.98;11.70;;;18.30;99.90;;;;;;5094639;28;20459;-66
2023/09/30 02:17:25;;;;;;;18.95;11.85;;;18.30;99.90;;;;;;5094113;28;20520;-66
2023/09/30 02:19:51;;;;;;;25.13;12.27;;;18.20;99.90;;;;;;5094856;28;20024;-66
2023/09/30 02:22:16;;;;;;;24.95;12.00;;;18.30;99.90;;;;;;5093949;28;20058;-66
2023/09/30 02:24:42;;;;;;;21.63;12.10;;;18.50;99.90;;;;;;5094716;28;20129;-66
2023/09/30 02:27:08;;;;;;;20.38;11.23;;;18.70;99.90;;;;;;5094286;28;20073;-66
2023/09/30 02:29:33;;;;;;;23.38;12.10;;;18.90;99.90;;;;;;5092905;28;20127;-66
2023/09/30 02:31:59;;;;;;;21.13;11.75;;;19.00;99.90;;;;;;5094235;28;20107;-66
2023/09/30 02:34:25;;;;;;;20.98;11.18;;;19.10;99.90;;;;;;5094137;28;20032;-66
2023/09/30 02:36:51;;;;;;;22.27;11.70;;;19.20;99.90;;;;;;5094098;28;20424;-67
2023/09/30 02:39:17;;;;;;;23.88;12.85;;;19.20;99.90;;;;;;5094102;28;20036;-66
2023/09/30 02:41:43;;;;;;;23.35;12.45;;;19.20;99.90;;;;;;5092867;28;20386;-65
2023/09/30 02:44:09;;;;;;;22.40;11.77;;;19.30;99.90;;;;;;5093913;28;20456;-66
2023/09/30 02:46:35;;;;;;;22.38;11.50;;;19.20;99.90;;;;;;5093994;28;20024;-66
2023/09/30 02:49:03;;;;;;;22.38;11.73;;;19.20;99.90;;;;;;5092564;28;20417;-66
2023/09/30 02:51:30;;;;;;;18.55;10.80;;;19.10;99.90;;;;;;5093883;28;20038;-66
2023/09/30 02:53:56;;;;;;;20.00;10.88;;;19.10;99.90;;;;;;5094133;28;20109;-66
2023/09/30 02:56:24;;;;;;;21.05;11.93;;;19.20;99.90;;;;;;5092459;28;20051;-66
2023/09/30 02:58:51;;;;;;;22.33;11.65;;;19.10;99.90;;;;;;5093543;28;20526;-66
2023/09/30 03:01:17;;;;;;;23.42;11.05;;;18.90;99.90;;;;;;5093361;28;20026;-66
2023/09/30 03:03:46;;;;;;;20.63;11.55;;;18.80;99.90;;;;;;5093638;28;20020;-66
2023/09/30 03:06:12;;;;;;;19.13;10.93;;;18.60;99.90;;;;;;5093988;28;20436;-66
2023/09/30 03:08:38;;;;;;;20.90;11.43;;;18.50;99.90;;;;;;5093320;28;20040;-66
2023/09/30 03:11:07;;;;;;;20.25;11.65;;;18.40;99.90;;;;;;5092018;28;20077;-66
2023/09/30 03:13:33;;;;;;;21.17;11.25;;;18.20;99.90;;;;;;5093174;28;20027;-66
2023/09/30 03:16:01;;;;;;;20.05;11.20;;;18.20;99.90;;;;;;5093420;28;20020;-66
2023/09/30 03:18:28;;;;;;;18.73;10.48;;;18.10;99.90;;;;;;5093730;28;20430;-66
2023/09/30 03:21:08;;;;;;;18.63;10.93;;;18.00;99.90;;;;;;5093353;28;20414;-66
2023/09/30 03:23:35;;;;;;;21.75;11.80;;;18.00;99.90;;;;;;5093268;28;20074;-65
2023/09/30 03:26:01;;;;;;;19.98;11.55;;;17.90;99.90;;;;;;5093101;28;20036;-66
2023/09/30 03:28:29;;;;;;;21.88;11.77;;;17.90;99.90;;;;;;5092723;28;20020;-66
2023/09/30 03:30:56;;;;;;;21.85;11.70;;;17.90;99.90;;;;;;5093175;28;20115;-66
2023/09/30 03:33:22;;;;;;;22.17;12.32;;;17.90;99.90;;;;;;5093073;28;20016;-66
2023/09/30 03:35:48;;;;;;;21.63;11.68;;;17.80;99.90;;;;;;5093360;28;20398;-66
2023/09/30 03:38:13;;;;;;;20.30;11.48;;;17.80;99.90;;;;;;5093006;28;20020;-66
2023/09/30 03:40:47;;;;;;;20.23;11.25;;;17.80;99.90;;;;;;5092758;28;20035;-66
2023/09/30 03:43:16;;;;;;;22.13;11.60;;;17.80;99.90;;;;;;5092546;28;20042;-66
2023/09/30 03:45:42;;;;;;;20.98;11.15;;;17.80;99.90;;;;;;5093253;28;20055;-66
2023/09/30 03:48:09;;;;;;;22.25;12.32;;;17.80;99.90;;;;;;5092805;28;20467;-66
2023/09/30 03:50:35;;;;;;;22.48;11.40;;;17.70;99.90;;;;;;5092648;28;20406;-67
2023/09/30 03:53:02;;;;;;;20.80;11.07;;;17.70;99.90;;;;;;5092445;28;20024;-66
2023/09/30 03:55:29;;;;;;;21.83;11.57;;;17.60;99.90;;;;;;5092638;28;20068;-66
2023/09/30 03:57:55;;;;;;;20.20;11.32;;;17.80;99.90;;;;;;5092204;28;20044;-66
2023/09/30 04:00:21;;;;;;;20.45;11.63;;;18.00;99.90;;;;;;5092551;28;20028;-66
2023/09/30 04:02:49;;;;;;;21.42;11.75;;;18.10;99.90;;;;;;5092373;28;20066;-66
2023/09/30 04:05:16;;;;;;;21.27;11.73;;;18.20;99.90;;;;;;5092398;28;20488;-66
2023/09/30 04:07:43;;;;;;;19.50;11.35;;;18.20;99.90;;;;;;5092297;28;20100;-66
2023/09/30 04:10:10;;;;;;;19.90;11.13;;;18.40;99.90;;;;;;5092178;28;20028;-66
2023/09/30 04:12:36;;;;;;;19.83;11.15;;;18.40;99.90;;;;;;5092132;28;20024;-66
2023/09/30 04:15:03;;;;;;;19.42;11.10;;;18.40;99.90;;;;;;5092462;28;20549;-66
2023/09/30 04:17:29;;;;;;;21.77;11.95;;;18.40;99.90;;;;;;5092096;28;20386;-66
2023/09/30 04:19:55;;;;;;;20.13;11.40;;;18.50;99.90;;;;;;5092119;28;20020;-66
2023/09/30 04:22:25;;;;;;;20.60;10.95;;;18.50;99.90;;;;;;5092595;28;20040;-66
2023/09/30 04:24:51;;;;;;;21.73;11.57;;;18.40;99.90;;;;;;5091886;28;20031;-66
2023/09/30 04:27:17;;;;;;;19.88;11.20;;;18.50;99.90;;;;;;5090396;28;20413;-67
2023/09/30 04:29:43;;;;;;;21.85;11.15;;;18.40;99.90;;;;;;5092304;28;20032;-66
2023/09/30 04:32:09;;;;;;;18.98;11.05;;;18.40;99.90;;;;;;5091987;28;20028;-66
2023/09/30 04:34:35;;;;;;;20.10;11.82;;;18.30;99.90;;;;;;5091872;28;20066;-66
2023/09/30 04:37:02;;;;;;;22.45;12.73;;;18.30;99.90;;;;;;5092192;28;20052;-66
2023/09/30 04:39:27;;;;;;;21.58;12.25;;;18.10;99.90;;;;;;5091816;28;20107;-66
2023/09/30 04:41:54;;;;;;;22.08;12.70;;;18.00;99.90;;;;;;5091426;28;20051;-66
2023/09/30 04:44:21;;;;;;;22.48;12.13;;;17.90;99.90;;;;;;5092115;28;20040;-66
2023/09/30 04:46:47;;;;;;;21.20;12.52;;;17.80;99.90;;;;;;5091674;28;20107;-66
2023/09/30 04:49:17;;;;;;;18.55;11.07;;;17.70;99.90;;;;;;5091576;28;20119;-66
2023/09/30 04:51:42;;;;;;;20.23;10.48;;;17.70;99.90;;;;;;5091669;28;20103;-66
2023/09/30 04:54:08;;;;;;;21.25;11.85;;;17.50;99.90;;;;;;5091528;28;20457;-66
2023/09/30 04:56:35;;;;;;;21.92;12.40;;;17.50;99.90;;;;;;5091557;28;20521;-66
2023/09/30 04:59:02;;;;;;;20.70;11.48;;;17.50;99.90;;;;;;5091627;28;20032;-66
2023/09/30 05:01:28;;;;;;;18.08;11.00;;;17.40;99.90;;;;;;5091492;28;20028;-65
2023/09/30 05:03:54;;;;;;;20.98;12.35;;;17.30;99.90;;;;;;5091045;28;20053;-66
2023/09/30 05:06:21;;;;;;;20.40;11.50;;;17.30;99.90;;;;;;5091499;28;20059;-66
2023/09/30 05:08:47;;;;;;;22.73;10.90;;;17.20;99.90;;;;;;5091065;28;20048;-66
2023/09/30 05:11:13;;;;;;;21.95;11.65;;;17.20;99.90;;;;;;5091292;28;20490;-66
2023/09/30 05:13:39;;;;;;;19.95;11.23;;;17.20;99.90;;;;;;5091457;28;20077;-66
2023/09/30 05:16:07;;;;;;;20.17;12.57;;;17.20;99.90;;;;;;5091354;28;20545;-66
2023/09/30 05:18:33;;;;;;;19.45;11.38;;;17.20;99.90;;;;;;5091242;28;20025;-65
2023/09/30 05:20:58;;;;;;;21.33;11.38;;;17.10;99.90;;;;;;5091200;28;20031;-66
2023/09/30 05:23:25;;;;;;;19.65;11.20;;;17.20;99.90;;;;;;5091460;28;20028;-66
2023/09/30 05:25:51;;;;;;;21.55;10.82;;;17.10;99.90;;;;;;5090861;28;20047;-66
2023/09/30 05:28:17;;;;;;;18.90;10.68;;;17.20;99.90;;;;;;5091267;28;20137;-66
2023/09/30 05:30:43;;;;;;;18.60;10.98;;;17.20;99.90;;;;;;5091067;28;20036;-66
2023/09/30 05:33:14;;;;;;;19.77;10.95;;;17.40;99.90;;;;;;5091195;28;20475;-66
2023/09/30 05:35:42;;;;;;;21.20;11.68;;;17.50;99.90;;;;;;5091315;28;20055;-66
2023/09/30 05:38:08;;;;;;;20.80;11.38;;;17.70;99.90;;;;;;5091015;28;20048;-66
2023/09/30 05:40:34;;;;;;;18.42;10.35;;;17.90;99.90;;;;;;5091170;28;20049;-66
2023/09/30 05:43:00;;;;;;;20.50;11.13;;;18.00;99.90;;;;;;5089870;28;20028;-66
2023/09/30 05:45:27;;;;;;;18.23;10.10;;;18.10;99.90;;;;;;5091026;28;20115;-66
2023/09/30 05:47:56;;;;;;;20.75;10.60;;;18.10;99.90;;;;;;5090774;28;20024;-66
2023/09/30 05:50:24;;;;;;;20.52;11.30;;;18.20;99.90;;;;;;5090864;28;20089;-66
2023/09/30 05:52:54;;;;;;;18.70;10.85;;;18.20;99.90;;;;;;5091041;28;20028;-66
2023/09/30 05:55:20;;;;;;;19.77;11.35;;;18.20;99.90;;;;;;5090652;28;20040;-66
2023/09/30 05:57:50;;;;;;;20.23;10.73;;;18.20;99.90;;;;;;5089772;28;20028;-65
2023/09/30 06:00:30;;;;;;;17.25;10.48;;;18.30;99.90;;;;;;5091079;28;20024;-66
2023/09/30 06:02:59;;;;;;;17.88;10.27;;;18.40;99.90;;;;;;5090841;28;20502;-66
2023/09/30 06:05:30;;;;;;;19.20;10.25;;;18.40;99.90;;;;;;5090858;28;20433;-66
2023/09/30 06:07:56;;;;;;;20.23;10.70;;;18.30;99.90;;;;;;5090361;28;20060;-66
2023/09/30 06:10:22;;;;;;;17.23;9.90;;;18.20;99.90;;;;;;5089893;28;20391;-66
2023/09/30 06:12:54;;;;;;;18.98;10.65;;;18.00;99.90;;;;;;5090819;28;20027;-66
2023/09/30 06:15:21;;;;;;;20.17;10.55;;;17.90;99.90;;;;;;5092189;28;20024;-66
2023/09/30 06:17:51;;;;;;;20.08;10.63;;;17.80;99.90;;;;;;5094955;28;20027;-66
2023/09/30 06:20:18;;;;;;;21.33;11.10;;;17.70;99.90;;;;;;5094433;28;20032;-66
2023/09/30 06:22:49;;;;;;;17.65;10.48;;;17.60;99.90;;;;;;5094060;28;20020;-66
2023/09/30 06:25:18;;;;;;;20.58;10.73;;;17.50;99.90;;;;;;5094115;28;20063;-66
2023/09/30 06:27:44;;;;;;;18.77;11.07;;;17.40;99.90;;;;;;5094744;28;20456;-66
2023/09/30 06:30:11;;;;;;;19.02;10.57;;;17.40;99.90;;;;;;5094141;28;20135;-65
2023/09/30 06:32:36;;;;;;;19.30;10.82;;;17.30;99.90;;;;;;5094286;28;20046;-66
2023/09/30 06:35:03;;;;;;;18.83;10.70;;;17.30;99.90;;;;;;5094154;28;20055;-66
2023/09/30 06:37:29;;;;;;;20.48;11.57;;;17.20;99.90;;;;;;5093803;28;20506;-66
2023/09/30 06:39:55;;;;;;;19.63;10.70;;;17.20;99.90;;;;;;5094160;28;20032;-66
2023/09/30 06:42:22;;;;;;;18.70;10.50;;;17.20;99.90;;;;;;5094136;28;20028;-65
2023/09/30 06:44:47;;;;;;;21.65;11.07;;;17.30;99.90;;;;;;5094412;28;20402;-65
2023/09/30 06:47:13;;;;;;;19.33;10.85;;;17.30;99.90;;;;;;5093806;28;20024;-66
2023/09/30 06:49:39;;;;;;;18.33;10.38;;;17.30;99.90;;;;;;5093706;28;20509;-66
2023/09/30 06:52:05;;;;;;;18.83;10.88;;;17.30;99.90;;;;;;5093511;28;20031;-66
2023/09/30 06:54:31;;;;;;;18.73;10.68;;;17.30;99.90;;;;;;5093863;28;20110;-66
2023/09/30 06:56:57;;;;;;;21.08;11.27;;;17.30;99.90;;;;;;5093843;28;20017;-66
2023/09/30 06:59:24;;;;;;;19.30;10.88;;;17.30;99.90;;;;;;5093648;28;20508;-66
2023/09/30 07:01:50;;;;;;;20.17;10.77;;;17.30;99.90;;;;;;5093717;28;20056;-66
2023/09/30 07:04:16;;;;;;;20.15;10.75;;;17.40;99.90;;;;;;5093459;28;20117;-66
2023/09/30 07:06:42;;;;;;;17.90;10.52;;;17.40;99.90;;;;;;5093065;28;20086;-66
2023/09/30 07:09:09;;;;;;;19.60;10.20;;;17.60;99.90;;;;;;5093683;28;20055;-66
2023/09/30 07:11:35;;;;;;;20.58;10.60;;;17.90;99.90;;;;;;5093610;28;20390;-67
2023/09/30 07:14:01;;;;;;;19.35;10.63;;;18.10;99.90;;;;;;5093378;28;20036;-66
2023/09/30 07:16:27;;;;;;;19.00;10.32;;;18.30;99.90;;;;;;5093570;28;20111;-66
2023/09/30 07:18:52;;;;;;;20.08;10.98;;;18.40;99.90;;;;;;5093202;28;20106;-66
2023/09/30 07:21:18;;;;;;;21.02;10.73;;;18.60;99.90;;;;;;5092996;28;20027;-66
2023/09/30 07:23:44;;;;;;;18.00;10.40;;;18.70;99.90;;;;;;5093620;28;20398;-66
2023/09/30 07:26:09;;;;;;;19.38;10.73;;;18.90;99.90;;;;;;5093002;28;20028;-66
2023/09/30 07:28:35;;;;;;;19.10;10.65;;;18.90;99.90;;;;;;5092544;28;20116;-66
2023/09/30 07:31:01;;;;;;;19.75;10.93;;;19.10;99.90;;;;;;5093722;28;20077;-66
2023/09/30 07:33:26;;;;;;;20.50;10.90;;;19.10;99.90;;;;;;5093031;28;20024;-66
2023/09/30 07:35:52;;;;;;;21.25;11.15;;;19.20;99.90;;;;;;5092702;28;20032;-66
2023/09/30 07:38:18;;;;;;;19.38;10.63;;;19.30;99.90;;;;;;5092944;28;20070;-66
2023/09/30 07:40:44;;;;;;;18.88;10.95;;;19.30;99.90;;;;;;5092879;28;20107;-66
2023/09/30 07:43:12;;;;;;;20.75;11.32;;;19.40;99.90;;;;;;5093374;28;20036;-66
2023/09/30 07:45:39;;;;;;;21.98;11.23;;;19.30;99.90;;;;;;5092881;28;20031;-66
2023/09/30 07:48:04;;;;;;;22.67;11.88;;;19.30;99.90;;;;;;5092420;28;20047;-66
2023/09/30 07:50:31;;;;;;;22.45;11.80;;;19.20;99.90;;;;;;5092425;28;20040;-66
2023/09/30 07:52:58;;;;;;;20.98;11.30;;;19.20;99.90;;;;;;5093066;28;20102;-66
2023/09/30 07:55:24;;;;;;;20.65;11.40;;;19.10;99.90;;;;;;5092644;28;20028;-66
2023/09/30 07:57:49;;;;;;;22.05;11.52;;;19.10;99.90;;;;;;5092607;28;20398;-66
2023/09/30 08:00:16;;;;;;;18.33;10.68;;;19.10;99.90;;;;;;5092751;28;20028;-66
2023/09/30 08:02:42;;;;;;;18.88;10.45;;;19.20;99.90;;;;;;5092913;28;20161;-66
2023/09/30 08:05:09;;;;;;;22.05;12.20;;;19.20;99.90;;;;;;5092090;28;20541;-66
2023/09/30 08:07:35;;;;;;;21.70;11.48;;;19.20;99.90;;;;;;5092289;28;20047;-66
2023/09/30 08:10:04;;;;;;;22.83;11.25;;;19.30;99.90;;;;;;5092596;28;20189;-66
2023/09/30 08:12:30;;;;;;;22.65;11.50;;;19.30;99.90;;;;;;5092353;28;20497;-66
2023/09/30 08:14:55;;;;;;;18.00;10.18;;;19.30;99.90;;;;;;5092444;28;20178;-65
2023/09/30 08:17:21;;;;;;;19.55;10.90;;;19.40;99.90;;;;;;5092083;28;20024;-66
2023/09/30 08:19:47;;;;;;;19.83;10.45;;;19.50;99.90;;;;;;5092307;28;20117;-66
2023/09/30 08:22:14;;;;;;;19.17;10.88;;;19.60;99.90;;;;;;5092248;28;20390;-66
2023/09/30 08:24:39;;;;;;;20.20;11.00;;;19.70;99.90;;;;;;5092028;28;20073;-66
2023/09/30 08:27:05;;;;;;;19.13;9.85;;;19.80;99.90;;;;;;5092203;28;20024;-66
2023/09/30 08:29:35;;;;;;;17.45;9.02;;;19.90;99.90;;;;;;5092024;28;20070;-66
2023/09/30 08:32:02;;;;;;;20.83;9.45;;;19.90;99.90;;;;;;5092269;28;20016;-66
2023/09/30 08:34:28;;;;;;;18.58;9.20;;;20.00;99.90;;;;;;5091631;28;20028;-66
2023/09/30 08:36:54;;;;;;;17.27;9.52;;;20.20;99.90;;;;;;5091807;28;20024;-66
2023/09/30 08:39:20;;;;;;;18.27;9.25;;;20.30;99.90;;;;;;5090977;28;20032;-66
2023/09/30 08:41:46;;;;;;;15.88;8.30;;;20.30;99.90;;;;;;5091718;28;20020;-66
2023/09/30 08:44:12;;;;;;;15.07;8.93;;;20.40;99.90;;;;;;5091759;28;20031;-66
2023/09/30 08:46:40;;;;;;;14.30;7.63;;;20.50;99.90;;;;;;5091342;28;20024;-66
2023/09/30 08:49:06;;;;;;;15.95;8.13;;;20.70;99.90;;;;;;5091360;28;20056;-67
2023/09/30 08:51:32;;;;;;;14.40;7.90;;;21.00;99.90;;;;;;5092090;28;20035;-66
2023/09/30 08:54:00;;;;;;;15.50;7.75;;;21.30;99.90;;;;;;5091625;28;20043;-66
2023/09/30 08:56:34;;;;;;;14.70;7.45;;;21.40;99.90;;;;;;5091544;28;20027;-66
2023/09/30 08:59:01;;;;;;;15.32;7.38;;;21.50;99.90;;;;;;5091952;28;20077;-66
2023/09/30 09:01:31;;;;;;;14.73;7.38;;;21.70;99.90;;;;;;5091160;28;20054;-67
2023/09/30 09:03:57;;;;;;;13.65;7.82;;;21.80;99.90;;;;;;5091482;28;20024;-66
2023/09/30 09:06:24;;;;;;;11.15;7.55;;;22.00;99.90;;;;;;5091791;28;20039;-67
2023/09/30 09:08:50;;;;;;;16.27;7.78;;;22.00;99.90;;;;;;5091245;28;20059;-67
2023/09/30 09:11:20;;;;;;;15.30;7.70;;;22.10;99.90;;;;;;5091571;28;20021;-66
2023/09/30 09:13:49;;;;;;;15.15;8.13;;;22.10;99.90;;;;;;5091288;28;20031;-67
2023/09/30 09:16:17;;;;;;;14.05;7.63;;;22.20;99.90;;;;;;5091139;28;20115;-67
2023/09/30 09:18:43;;;;;;;14.13;7.50;;;22.20;99.90;;;;;;5091292;28;20069;-67
2023/09/30 09:21:17;;;;;;;14.35;7.78;;;22.30;99.90;;;;;;5091927;28;20016;-66
2023/09/30 09:23:47;;;;;;;17.92;8.52;;;22.30;99.90;;;;;;5091383;28;20032;-67
2023/09/30 09:26:27;;;;;;;18.38;8.40;;;22.10;99.90;;;;;;5091201;28;20051;-67
2023/09/30 09:29:01;;;;;;;16.95;8.40;;;22.10;99.90;;;;;;5091159;28;20032;-66
2023/09/30 09:31:31;;;;;;;;;;;22.00;99.90;;;;;;5091288;28;20059;-66
2023/09/30 09:33:57;;;;;;;15.63;7.35;;;22.00;99.90;;;;;;5091236;28;19911;-66
2023/09/30 09:36:45;;;;;;;18.45;8.48;;;22.00;99.90;;;;;;5091173;28;20055;-67
2023/09/30 09:39:16;;;;;;;14.60;7.65;;;22.20;99.90;;;;;;5091578;28;20074;-67
2023/09/30 09:41:54;;;;;;;14.00;7.00;;;22.30;99.90;;;;;;5091203;28;20031;-67
2023/09/30 09:44:21;;;;;;;14.02;7.30;;;22.30;99.90;;;;;;5091083;28;20028;-66
2023/09/30 09:46:50;;;;;;;13.82;7.10;;;22.30;99.90;;;;;;5090540;28;20052;-66
2023/09/30 09:49:16;;;;;;;12.95;6.78;;;22.50;99.90;;;;;;5091388;28;20032;-66
2023/09/30 09:51:47;;;;;;;12.48;6.70;;;22.50;99.90;;;;;;5094828;28;20051;-67
2023/09/30 09:54:15;;;;;;;12.93;6.35;;;22.50;99.90;;;;;;5095080;28;20460;-66
2023/09/30 09:56:45;;;;;;;13.50;5.72;;;22.60;99.90;;;;;;5094896;28;20059;-66
2023/09/30 09:59:12;;;;;;;12.90;6.15;;;22.60;99.90;;;;;;5094903;28;20060;-67
2023/09/30 10:01:40;;;;;;;11.65;6.25;;;22.70;99.90;;;;;;5094526;28;20031;-66
2023/09/30 10:04:06;;;;;;;10.23;5.80;;;22.80;99.90;;;;;;5094739;28;20024;-67
2023/09/30 10:06:38;;;;;;;12.20;5.82;;;22.90;99.90;;;;;;5094725;28;20039;-67
2023/09/30 10:09:07;;;;;;;11.82;5.90;;;22.90;99.90;;;;;;5094602;28;20456;-67
2023/09/30 10:11:34;;;;;;;10.45;5.80;;;23.00;99.90;;;;;;5094988;28;20021;-66
2023/09/30 10:14:02;;;;;;;12.27;6.45;;;23.20;99.90;;;;;;5094353;28;20032;-67
2023/09/30 10:16:37;;;;;;;10.75;5.80;;;23.30;99.90;;;;;;5094816;28;20034;-67
2023/09/30 10:19:13;;;;;;;11.30;5.57;;;23.30;99.90;;;;;;5094620;28;20028;-67
2023/09/30 10:22:00;;;;;;;11.98;5.90;;;23.40;99.90;;;;;;5094623;28;20049;-68
2023/09/30 10:24:27;;;;;;;9.80;5.63;;;23.50;99.90;;;;;;5094691;28;20035;-66
2023/09/30 10:28:00;;;;;;;12.85;6.80;;;23.80;99.90;;;;;;5094387;28;20020;-67
2023/09/30 10:30:18;;;;;;;15.13;6.60;;;24.00;99.90;;;;;;5092747;28;20044;-67
2023/09/30 10:33:07;;;;;;;11.40;5.88;;;24.20;99.90;;;;;;5094321;28;20536;-68
2023/09/30 10:35:33;;;;;;;13.95;6.03;;;24.20;99.90;;;;;;5091213;28;20032;-67
2023/09/30 10:38:27;;;;;;;10.77;5.90;;;24.20;99.90;;;;;;5094225;28;20028;-68
2023/09/30 10:40:53;;;;;;;12.27;6.30;;;24.20;99.90;;;;;;5093949;28;20031;-68
2023/09/30 10:43:36;;;;;;;10.43;5.90;;;24.50;99.90;;;;;;5093770;28;20116;-67
2023/09/30 10:46:23;;;;;;;7.95;5.45;;;24.60;99.90;;;;;;5094488;28;20020;-68
2023/09/30 10:48:49;;;;;;;10.55;5.72;;;24.70;99.90;;;;;;5093934;28;20131;-68
2023/09/30 10:51:21;;;;;;;9.75;5.57;;;24.90;99.90;;;;;;5094032;28;20870;-68
2023/09/30 10:53:48;;;;;;;10.85;5.68;;;25.00;99.90;;;;;;5093880;28;20089;-68
2023/09/30 10:56:15;;;;;;;9.18;5.10;;;25.10;99.90;;;;;;5093746;28;20553;-68
2023/09/30 10:58:49;;;;;;;10.05;5.18;;;25.10;99.90;;;;;;5093442;28;20429;-68
2023/09/30 11:01:23;;;;;;;11.05;5.47;;;25.20;99.90;;;;;;5093579;28;20016;-68
2023/09/30 11:03:53;;;;;;;11.15;5.70;;;25.10;99.90;;;;;;5093772;28;20103;-68
2023/09/30 11:06:22;;;;;;;9.15;4.97;;;25.10;99.90;;;;;;5093562;28;20470;-67
2023/09/30 11:09:00;;;;;;;9.73;5.55;;;25.10;99.90;;;;;;5093300;28;20040;-67
2023/09/30 11:11:44;;;;;;;10.35;5.65;;;24.90;99.90;;;;;;5093564;28;20058;-67
2023/09/30 11:14:26;;;;;;;15.50;12.40;;;24.90;99.90;;;;;;5093198;28;20059;-67
2023/09/30 11:16:53;;;;;;;11.65;8.13;;;25.00;99.90;;;;;;5093891;28;20035;-67
2023/09/30 11:19:21;;;;;;;15.10;8.48;;;25.00;99.90;;;;;;5093152;28;20024;-68
2023/09/30 11:21:48;;;;;;;9.35;6.82;;;25.00;99.90;;;;;;5093488;28;20059;-67
2023/09/30 11:24:14;;;;;;;8.88;5.40;;;25.20;99.90;;;;;;5093361;28;20074;-67
2023/09/30 11:26:43;;;;;;;8.05;5.00;;;25.20;99.90;;;;;;5093191;28;20031;-67
2023/09/30 11:29:11;;;;;;;7.97;5.03;;;25.30;99.90;;;;;;5093123;28;20558;-67
2023/09/30 11:31:41;;;;;;;8.20;4.85;;;25.40;99.90;;;;;;5093222;28;20032;-67
2023/09/30 11:34:07;;;;;;;7.18;4.88;;;25.40;99.90;;;;;;5093421;28;20095;-68
2023/09/30 11:36:39;;;;;;;8.10;4.65;;;25.40;99.90;;;;;;5092846;28;20508;-67
2023/09/30 11:39:05;;;;;;;6.95;4.45;;;25.50;99.90;;;;;;5093011;28;20402;-67
2023/09/30 11:41:35;;;;;;;8.02;4.80;;;25.60;99.90;;;;;;5093092;28;20025;-67
2023/09/30 11:44:01;;;;;;;7.95;4.72;;;25.70;99.90;;;;;;5092949;28;20060;-67
2023/09/30 11:46:27;;;;;;;8.32;4.53;;;25.70;99.90;;;;;;5092752;28;20035;-67
2023/09/30 11:49:12;;;;;;;8.93;4.95;;;25.80;99.90;;;;;;5093064;28;20097;-67
2023/09/30 11:51:47;;;;;;;9.00;4.20;;;25.80;99.90;;;;;;5092686;28;20031;-67
2023/09/30 11:54:14;;;;;;;6.57;4.20;;;25.80;99.90;;;;;;5092995;28;20028;-67
2023/09/30 11:56:40;;;;;;;8.85;4.90;;;25.90;99.90;;;;;;5092143;28;20090;-67
2023/09/30 11:59:06;;;;;;;9.07;4.88;;;25.90;99.90;;;;;;5092998;28;20067;-67
2023/09/30 12:01:32;;;;;;;7.25;4.70;;;26.10;99.90;;;;;;5092515;28;20032;-67
2023/09/30 12:03:58;;;;;;;8.10;4.85;;;26.40;99.90;;;;;;5092308;28;20032;-68
2023/09/30 12:06:24;;;;;;;7.45;4.30;;;26.60;99.90;;;;;;5092219;28;20020;-68
2023/09/30 12:08:51;;;;;;;7.22;4.38;;;26.70;99.90;;;;;;5092468;28;20079;-67
2023/09/30 12:11:18;;;;;;;8.15;4.38;;;26.80;99.90;;;;;;5091792;28;20047;-68
2023/09/30 12:13:44;;;;;;;7.45;4.80;;;26.80;99.90;;;;;;5092398;28;20497;-68
2023/09/30 12:16:13;;;;;;;7.95;4.63;;;26.90;99.90;;;;;;5092127;28;20145;-67
2023/09/30 12:18:40;;;;;;;7.35;4.38;;;27.00;99.90;;;;;;5092196;28;20390;-67
2023/09/30 12:21:19;;;;;;;7.95;4.78;;;27.00;99.90;;;;;;5092242;28;20020;-68
2023/09/30 12:23:45;;;;;;;8.35;4.75;;;27.10;99.90;;;;;;5092500;28;20422;-68
2023/09/30 12:26:11;;;;;;;7.55;4.75;;;27.20;99.90;;;;;;5091765;28;20561;-68
2023/09/30 12:28:39;;;;;;;8.23;4.75;;;27.30;99.90;;;;;;5092020;28;20047;-67
2023/09/30 12:31:05;;;;;;;8.13;4.47;;;27.40;99.90;;;;;;5092093;28;20035;-68
2023/09/30 12:33:32;;;;;;;8.35;4.28;;;27.30;99.90;;;;;;5091898;28;20101;-67